createdAt,value
2018-01-28T00:01:49.767Z,40.75
2018-01-28T00:04:17.895Z,34.95
2018-01-28T00:06:46.799Z,42.20
2018-01-28T00:09:15.697Z,39.10
2018-01-28T00:11:43.895Z,38.22
2018-01-28T00:14:12.361Z,36.92
2018-01-28T00:16:40.467Z,31.98
2018-01-28T00:19:09.505Z,33.17
2018-01-28T00:21:37.641Z,38.43
2018-01-28T00:24:05.783Z,30.27
2018-01-28T00:26:33.915Z,29.65
2018-01-28T00:29:02.185Z,31.02
2018-01-28T00:31:31.096Z,28.20
2018-01-28T00:33:59.238Z,31.98
2018-01-28T00:36:27.346Z,27.70
2018-01-28T00:38:55.468Z,30.35
2018-01-28T00:41:23.622Z,29.75
2018-01-28T00:43:51.752Z,28.50
2018-01-28T00:46:19.879Z,32.15
2018-01-28T00:48:48.019Z,31.58
2018-01-28T00:51:16.145Z,28.40
2018-01-28T00:53:44.269Z,27.77
2018-01-28T00:56:12.400Z,27.55
2018-01-28T00:58:41.321Z,27.23
2018-01-28T01:01:09.522Z,28.40
2018-01-28T01:03:37.652Z,30.60
2018-01-28T01:06:05.785Z,29.60
2018-01-28T01:08:33.917Z,26.02
2018-01-28T01:11:02.049Z,25.85
2018-01-28T01:13:30.938Z,29.70
2018-01-28T01:15:59.852Z,25.48
2018-01-28T01:18:27.986Z,28.98
2018-01-28T01:20:56.146Z,28.20
2018-01-28T01:23:25.017Z,25.73
2018-01-28T01:25:53.146Z,26.10
2018-01-28T01:28:22.041Z,29.48
2018-01-28T01:30:50.163Z,23.70
2018-01-28T01:33:18.299Z,26.15
2018-01-28T01:35:46.419Z,28.80
2018-01-28T01:38:14.551Z,28.65
2018-01-28T01:40:42.674Z,26.12
2018-01-28T01:43:10.812Z,30.58
2018-01-28T01:45:38.938Z,30.75
2018-01-28T01:48:07.830Z,26.90
2018-01-28T01:50:36.716Z,23.40
2018-01-28T01:53:05.616Z,25.42
2018-01-28T01:55:33.745Z,21.70
2018-01-28T01:58:01.871Z,22.45
2018-01-28T02:00:30.048Z,22.70
2018-01-28T02:02:58.914Z,23.38
2018-01-28T02:05:27.790Z,24.33
2018-01-28T02:07:56.710Z,27.42
2018-01-28T02:10:25.591Z,20.95
2018-01-28T02:12:53.735Z,24.20
2018-01-28T02:15:21.874Z,24.92
2018-01-28T02:17:50.012Z,26.23
2018-01-28T02:20:18.201Z,27.50
2018-01-28T02:22:46.326Z,25.75
2018-01-28T02:25:14.449Z,29.23
2018-01-28T02:27:42.569Z,24.05
2018-01-28T02:30:10.717Z,14.13
2018-01-28T02:32:38.853Z,27.23
2018-01-28T02:35:06.977Z,23.87
2018-01-28T02:37:35.103Z,17.85
2018-01-28T02:40:03.244Z,24.50
2018-01-28T02:42:32.142Z,22.83
2018-01-28T02:45:01.022Z,28.35
2018-01-28T02:47:29.928Z,16.70
2018-01-28T02:49:58.121Z,16.57
2018-01-28T02:52:26.241Z,21.25
2018-01-28T02:54:54.363Z,22.58
2018-01-28T02:57:22.533Z,18.12
2018-01-28T02:59:50.658Z,19.58
2018-01-28T03:02:18.781Z,19.83
2018-01-28T03:04:46.924Z,18.83
2018-01-28T03:07:15.817Z,17.50
2018-01-28T03:09:44.709Z,20.35
2018-01-28T03:12:12.819Z,8.85
2018-01-28T03:14:40.947Z,23.90
2018-01-28T03:17:09.845Z,18.98
2018-01-28T03:19:38.755Z,21.62
2018-01-28T03:22:06.868Z,22.23
2018-01-28T03:24:34.988Z,21.85
2018-01-28T03:27:03.128Z,19.05
2018-01-28T03:29:32.015Z,19.95
2018-01-28T03:32:00.141Z,19.20
2018-01-28T03:34:28.273Z,18.35
2018-01-28T03:36:57.166Z,19.00
2018-01-28T03:39:26.055Z,21.25
2018-01-28T03:41:54.955Z,20.45
2018-01-28T03:44:23.109Z,20.92
2018-01-28T03:46:52.011Z,19.02
2018-01-28T03:49:20.901Z,18.05
2018-01-28T03:51:49.787Z,19.67
2018-01-28T03:54:17.928Z,22.08
2018-01-28T03:56:46.052Z,16.25
2018-01-28T03:59:14.187Z,20.23
2018-01-28T04:01:42.623Z,17.63
2018-01-28T04:04:10.754Z,18.50
2018-01-28T04:06:39.677Z,19.57
2018-01-28T04:09:07.817Z,23.00
2018-01-28T04:11:36.713Z,16.62
2018-01-28T04:14:04.858Z,19.75
2018-01-28T04:16:32.988Z,20.95
2018-01-28T04:19:01.119Z,20.67
2018-01-28T04:21:30.011Z,21.93
2018-01-28T04:23:58.955Z,22.98
2018-01-28T04:26:27.104Z,20.75
2018-01-28T04:28:55.230Z,22.02
2018-01-28T04:31:23.381Z,25.27
2018-01-28T04:33:51.499Z,15.32
2018-01-28T04:36:19.633Z,23.52
2018-01-28T04:38:47.766Z,22.02
2018-01-28T04:41:15.882Z,20.15
2018-01-28T04:43:44.018Z,23.00
2018-01-28T04:46:12.130Z,24.83
2018-01-28T04:48:40.279Z,26.58
2018-01-28T04:51:08.397Z,20.67
2018-01-28T04:53:37.297Z,27.00
2018-01-28T04:56:06.206Z,25.17
2018-01-28T04:58:34.330Z,24.92
2018-01-28T05:01:02.476Z,22.87
2018-01-28T05:03:30.577Z,22.65
2018-01-28T05:05:58.794Z,26.77
2018-01-28T05:08:27.660Z,25.23
2018-01-28T05:10:56.575Z,25.27
2018-01-28T05:13:24.689Z,24.10
2018-01-28T05:15:52.815Z,23.23
2018-01-28T05:18:20.946Z,23.98
2018-01-28T05:20:49.067Z,25.67
2018-01-28T05:23:17.238Z,23.50
2018-01-28T05:25:45.361Z,22.58
2018-01-28T05:28:13.489Z,23.90
2018-01-28T05:30:41.615Z,24.60
2018-01-28T05:33:10.547Z,22.05
2018-01-28T05:35:38.654Z,24.50
2018-01-28T05:38:06.791Z,21.95
2018-01-28T05:40:34.918Z,23.48
2018-01-28T05:43:03.811Z,24.40
2018-01-28T05:45:32.710Z,24.05
2018-01-28T05:48:01.603Z,27.35
2018-01-28T05:50:30.517Z,23.65
2018-01-28T05:52:58.671Z,23.02
2018-01-28T05:55:26.794Z,26.45
2018-01-28T05:57:54.926Z,24.12
2018-01-28T06:00:23.049Z,23.90
2018-01-28T06:02:51.183Z,21.52
2018-01-28T06:05:19.309Z,23.07
2018-01-28T06:07:48.208Z,26.37
2018-01-28T06:10:17.111Z,25.80
2018-01-28T06:12:45.253Z,25.65
2018-01-28T06:15:13.478Z,25.90
2018-01-28T06:17:42.342Z,23.12
2018-01-28T06:20:11.234Z,22.27
2018-01-28T06:22:39.436Z,26.08
2018-01-28T06:25:07.566Z,25.83
2018-01-28T06:27:36.494Z,23.15
2018-01-28T06:30:05.359Z,27.40
2018-01-28T06:32:34.272Z,20.45
2018-01-28T06:35:02.407Z,27.37
2018-01-28T06:37:31.291Z,21.80
2018-01-28T06:39:59.614Z,24.83
2018-01-28T06:42:28.511Z,22.20
2018-01-28T06:44:56.644Z,22.30
2018-01-28T06:47:25.553Z,22.65
2018-01-28T06:49:53.702Z,24.52
2018-01-28T06:52:21.839Z,24.15
2018-01-28T06:54:49.967Z,25.20
2018-01-28T06:57:18.837Z,23.73
2018-01-28T06:59:47.743Z,22.98
2018-01-28T07:02:15.937Z,21.00
2018-01-28T07:04:44.068Z,25.30
2018-01-28T07:07:12.965Z,23.38
2018-01-28T07:09:41.876Z,24.73
2018-01-28T07:12:09.989Z,25.80
2018-01-28T07:14:38.134Z,21.87
2018-01-28T07:17:06.267Z,25.25
2018-01-28T07:19:34.421Z,23.52
2018-01-28T07:22:02.555Z,28.20
2018-01-28T07:24:30.675Z,24.85
2018-01-28T07:26:58.818Z,20.17
2018-01-28T07:29:26.973Z,26.58
2018-01-28T07:31:55.102Z,19.85
2018-01-28T07:34:24.011Z,22.80
2018-01-28T07:36:52.156Z,20.67
2018-01-28T07:39:21.060Z,24.70
2018-01-28T07:41:49.946Z,25.48
2018-01-28T07:44:18.855Z,20.00
2018-01-28T07:46:46.969Z,23.45
2018-01-28T07:49:15.106Z,23.90
2018-01-28T07:51:43.219Z,24.90
2018-01-28T07:54:11.355Z,21.45
2018-01-28T07:56:39.480Z,23.42
2018-01-28T07:59:07.639Z,22.48
2018-01-28T08:01:35.757Z,23.58
2018-01-28T08:04:03.894Z,22.58
2018-01-28T08:06:32.036Z,22.73
2018-01-28T08:09:00.198Z,22.70
2018-01-28T08:11:34.630Z,19.50
2018-01-28T08:14:05.296Z,24.20
2018-01-28T08:16:33.456Z,21.85
2018-01-28T08:19:01.558Z,22.80
2018-01-28T08:21:30.466Z,17.70
2018-01-28T08:23:58.608Z,19.15
2018-01-28T08:29:28.539Z,17.25
2018-01-28T08:31:56.688Z,19.12
2018-01-28T08:34:24.836Z,17.65
2018-01-28T08:36:52.986Z,19.95
2018-01-28T08:39:21.122Z,24.45
2018-01-28T08:41:49.240Z,19.05
2018-01-28T08:44:17.387Z,21.37
2018-01-28T08:46:46.278Z,21.80
2018-01-28T08:49:15.164Z,19.98
2018-01-28T08:51:44.065Z,20.83
2018-01-28T08:54:12.958Z,19.42
2018-01-28T08:56:41.846Z,18.10
2018-01-28T08:59:09.976Z,19.02
2018-01-28T09:01:38.099Z,17.67
2018-01-28T09:04:06.233Z,22.05
2018-01-28T09:06:34.376Z,19.00
2018-01-28T09:09:03.263Z,17.17
2018-01-28T09:11:32.165Z,15.20
2018-01-28T09:14:00.310Z,18.05
2018-01-28T09:16:28.457Z,15.15
2018-01-28T09:18:56.622Z,18.12
2018-01-28T09:21:24.785Z,19.63
2018-01-28T09:23:52.896Z,17.12
2018-01-28T09:26:21.031Z,17.58
2018-01-28T09:28:49.186Z,17.15
2018-01-28T09:31:17.318Z,16.30
2018-01-28T09:33:45.464Z,17.40
2018-01-28T09:36:14.380Z,19.57
2018-01-28T09:38:42.507Z,18.92
2018-01-28T09:41:11.425Z,16.20
2018-01-28T09:43:39.609Z,15.77
2018-01-28T09:46:08.508Z,16.60
2018-01-28T09:48:36.629Z,10.57
2018-01-28T09:51:05.534Z,15.67
2018-01-28T09:53:34.448Z,19.95
2018-01-28T09:56:02.611Z,16.10
2018-01-28T09:58:31.482Z,16.95
2018-01-28T10:01:00.404Z,16.73
2018-01-28T10:03:29.294Z,15.98
2018-01-28T10:05:57.420Z,13.10
2018-01-28T10:08:25.557Z,17.00
2018-01-28T10:10:53.670Z,11.35
2018-01-28T10:13:21.815Z,13.30
2018-01-28T10:15:50.685Z,12.07
2018-01-28T10:18:18.823Z,15.98
2018-01-28T10:20:47.716Z,11.80
2018-01-28T10:23:16.618Z,16.15
2018-01-28T10:25:44.751Z,13.10
2018-01-28T10:28:12.921Z,12.95
2018-01-28T10:30:41.850Z,14.30
2018-01-28T10:33:09.963Z,8.48
2018-01-28T10:35:38.126Z,12.10
2018-01-28T10:38:06.234Z,13.73
2018-01-28T10:40:34.357Z,10.88
2018-01-28T10:43:02.498Z,10.52
2018-01-28T10:45:30.633Z,10.98
2018-01-28T10:47:59.016Z,11.48
2018-01-28T10:50:27.149Z,13.80
2018-01-28T10:52:55.275Z,10.98
2018-01-28T10:55:23.398Z,6.87
2018-01-28T10:57:51.533Z,8.02
2018-01-28T11:00:20.407Z,7.25
2018-01-28T11:02:48.640Z,8.75
2018-01-28T11:05:16.860Z,9.07
2018-01-28T11:07:44.985Z,8.98
2018-01-28T11:10:13.131Z,7.35
2018-01-28T11:12:41.293Z,8.55
2018-01-28T11:15:10.178Z,6.47
2018-01-28T11:17:39.099Z,8.40
2018-01-28T11:20:07.244Z,8.45
2018-01-28T11:22:36.150Z,4.60
2018-01-28T11:25:04.266Z,10.55
2018-01-28T11:27:32.411Z,9.02
2018-01-28T11:30:00.576Z,6.37
2018-01-28T11:32:29.464Z,9.60
2018-01-28T11:34:57.570Z,7.33
2018-01-28T11:37:25.752Z,6.65
2018-01-28T11:39:53.866Z,7.43
2018-01-28T11:42:22.750Z,6.70
2018-01-28T11:44:51.641Z,11.18
2018-01-28T11:47:20.536Z,8.07
2018-01-28T11:49:49.429Z,11.63
2018-01-28T11:52:17.567Z,7.45
2018-01-28T11:54:45.703Z,6.55
2018-01-28T11:57:13.806Z,8.65
2018-01-28T11:59:41.982Z,7.12
2018-01-28T12:02:10.109Z,7.80
2018-01-28T12:04:39.087Z,9.13
2018-01-28T12:07:07.226Z,9.85
2018-01-28T12:09:36.119Z,10.02
2018-01-28T12:12:05.048Z,7.43
2018-01-28T12:14:33.179Z,7.55
2018-01-28T12:17:02.075Z,7.07
2018-01-28T12:19:30.981Z,7.47
2018-01-28T12:21:59.161Z,6.43
2018-01-28T12:24:28.040Z,7.07
2018-01-28T12:26:56.150Z,8.18
2018-01-28T12:29:25.048Z,7.53
2018-01-28T12:31:53.232Z,5.28
2018-01-28T12:34:21.390Z,8.33
2018-01-28T12:36:49.496Z,6.30
2018-01-28T12:39:17.642Z,7.28
2018-01-28T12:41:45.793Z,7.43
2018-01-28T12:44:13.893Z,8.40
2018-01-28T12:46:42.079Z,7.50
2018-01-28T12:49:10.174Z,6.60
2018-01-28T12:51:39.100Z,7.15
2018-01-28T12:54:07.272Z,6.22
2018-01-28T12:56:35.455Z,7.28
2018-01-28T12:59:03.560Z,6.43
2018-01-28T13:01:31.685Z,4.70
2018-01-28T13:03:59.804Z,5.75
2018-01-28T13:06:27.960Z,5.77
2018-01-28T13:08:56.097Z,4.72
2018-01-28T13:11:24.223Z,5.68
2018-01-28T13:13:53.151Z,6.10
2018-01-28T13:16:21.353Z,8.10
2018-01-28T13:18:49.489Z,5.18
2018-01-28T13:21:17.624Z,4.37
2018-01-28T13:23:45.802Z,4.82
2018-01-28T13:26:14.033Z,4.93
2018-01-28T13:28:42.128Z,4.05
2018-01-28T13:31:10.285Z,4.20
2018-01-28T13:33:38.418Z,3.70
2018-01-28T13:36:06.567Z,5.35
2018-01-28T13:38:34.696Z,3.75
2018-01-28T13:41:02.841Z,4.50
2018-01-28T13:43:31.724Z,3.60
2018-01-28T13:46:00.746Z,3.40
2018-01-28T13:48:28.927Z,3.08
2018-01-28T13:50:57.034Z,6.00
2018-01-28T13:53:25.256Z,3.83
2018-01-28T13:55:54.127Z,4.47
2018-01-28T13:58:22.270Z,3.40
2018-01-28T14:00:50.412Z,2.60
2018-01-28T14:03:18.555Z,3.70
2018-01-28T14:05:46.694Z,2.40
2018-01-28T14:08:14.835Z,3.12
2018-01-28T14:10:42.970Z,3.33
2018-01-28T14:13:11.151Z,2.28
2018-01-28T14:15:39.312Z,3.65
2018-01-28T14:18:08.175Z,5.95
2018-01-28T14:20:36.327Z,3.23
2018-01-28T14:23:04.461Z,2.53
2018-01-28T14:25:32.907Z,3.00
2018-01-28T14:28:01.661Z,2.80
2018-01-28T14:30:29.782Z,3.17
2018-01-28T14:32:57.937Z,3.03
2018-01-28T14:35:26.881Z,3.10
2018-01-28T14:37:54.999Z,2.85
2018-01-28T14:40:23.895Z,3.08
2018-01-28T14:42:52.032Z,2.78
2018-01-28T14:45:20.186Z,2.90
2018-01-28T14:47:48.375Z,2.15
2018-01-28T14:50:16.511Z,3.08
2018-01-28T14:52:44.634Z,3.08
2018-01-28T14:55:12.806Z,2.35
2018-01-28T14:57:40.952Z,3.17
2018-01-28T15:00:09.148Z,1.95
2018-01-28T15:02:37.304Z,3.75
2018-01-28T15:05:05.488Z,2.20
2018-01-28T15:07:33.617Z,2.20
2018-01-28T15:10:01.811Z,1.45
2018-01-28T15:12:29.969Z,1.90
2018-01-28T15:14:58.093Z,2.40
2018-01-28T15:17:26.315Z,0.90
2018-01-28T15:19:54.509Z,2.33
2018-01-28T15:22:22.685Z,1.42
2018-01-28T15:24:50.815Z,1.25
2018-01-28T15:27:18.947Z,1.02
2018-01-28T15:29:47.178Z,3.03
2018-01-28T15:32:18.548Z,1.50
2018-01-28T15:34:47.504Z,1.90
2018-01-28T15:37:15.650Z,1.98
2018-01-28T15:39:44.566Z,1.52
2018-01-28T15:42:13.459Z,1.35
2018-01-28T15:44:41.638Z,2.00
2018-01-28T15:47:09.762Z,1.70
2018-01-28T15:49:38.855Z,1.92
2018-01-28T15:52:06.995Z,1.55
2018-01-28T15:54:35.102Z,2.05
2018-01-28T15:57:03.247Z,3.72
2018-01-28T15:59:31.404Z,2.12
2018-01-28T16:01:59.533Z,1.27
2018-01-28T16:04:28.452Z,3.05
2018-01-28T16:06:57.386Z,2.17
2018-01-28T16:09:25.511Z,3.45
2018-01-28T16:11:54.395Z,2.40
2018-01-28T16:14:23.310Z,2.35
2018-01-28T16:16:51.478Z,4.00
2018-01-28T16:19:20.473Z,5.95
2018-01-28T16:21:49.554Z,4.10
2018-01-28T16:24:17.709Z,8.50
2018-01-28T16:26:47.040Z,7.90
2018-01-28T16:29:15.318Z,7.30
2018-01-28T16:31:43.464Z,2.65
2018-01-28T16:34:12.344Z,2.53
2018-01-28T16:36:40.536Z,2.60
2018-01-28T16:39:09.403Z,1.20
2018-01-28T16:41:38.333Z,2.22
2018-01-28T16:44:06.469Z,1.60
2018-01-28T16:46:35.360Z,1.83
2018-01-28T16:49:04.447Z,1.92
2018-01-28T16:51:32.567Z,2.03
2018-01-28T16:54:00.754Z,2.00
2018-01-28T16:56:28.934Z,1.70
2018-01-28T16:58:57.090Z,3.12
2018-01-28T17:01:25.230Z,3.63
2018-01-28T17:03:54.170Z,2.22
2018-01-28T17:06:22.305Z,3.17
2018-01-28T17:08:50.433Z,2.40
2018-01-28T17:11:18.614Z,3.12
2018-01-28T17:13:46.745Z,4.50
2018-01-28T17:16:14.908Z,2.60
2018-01-28T17:18:43.784Z,2.70
2018-01-28T17:21:11.918Z,3.17
2018-01-28T17:23:40.067Z,3.80
2018-01-28T17:26:08.222Z,3.15
2018-01-28T17:28:36.412Z,2.83
2018-01-28T17:31:05.413Z,5.65
2018-01-28T17:33:34.362Z,2.72
2018-01-28T17:36:02.494Z,2.27
2018-01-28T17:38:30.643Z,2.40
2018-01-28T17:40:58.846Z,3.10
2018-01-28T17:43:27.124Z,3.58
2018-01-28T17:45:55.398Z,2.87
2018-01-28T17:48:23.555Z,3.90
2018-01-28T17:50:51.784Z,3.80
2018-01-28T17:53:19.915Z,2.12
2018-01-28T17:55:48.978Z,2.55
2018-01-28T17:58:17.206Z,4.93
2018-01-28T18:00:45.405Z,3.10
2018-01-28T18:03:13.538Z,2.40
2018-01-28T18:05:41.682Z,5.17
2018-01-28T18:08:09.844Z,4.37
2018-01-28T18:10:38.001Z,4.60
2018-01-28T18:13:06.345Z,3.37
2018-01-28T18:15:34.454Z,4.43
2018-01-28T18:18:02.689Z,2.10
2018-01-28T18:20:30.832Z,2.83
2018-01-28T18:22:59.071Z,3.75
2018-01-28T18:25:27.999Z,2.60
2018-01-28T18:27:57.278Z,3.00
2018-01-28T18:30:25.462Z,3.25
2018-01-28T18:32:53.583Z,2.85
2018-01-28T18:35:22.614Z,4.10
2018-01-28T18:37:51.598Z,2.65
2018-01-28T18:40:19.842Z,3.60
2018-01-28T18:42:48.843Z,3.40
2018-01-28T18:45:17.792Z,3.22
2018-01-28T18:47:45.991Z,3.95
2018-01-28T18:50:15.158Z,2.78
2018-01-28T18:52:45.662Z,2.80
2018-01-28T18:55:13.814Z,3.22
2018-01-28T18:57:42.764Z,3.55
2018-01-28T19:00:10.977Z,5.30
2018-01-28T19:02:39.146Z,3.55
2018-01-28T19:05:08.306Z,4.27
2018-01-28T19:07:36.675Z,3.78
2018-01-28T19:10:04.813Z,2.72
2018-01-28T19:12:32.972Z,2.72
2018-01-28T19:15:01.196Z,3.37
2018-01-28T19:17:30.136Z,4.15
2018-01-28T19:19:58.356Z,3.70
2018-01-28T19:22:26.557Z,12.45
2018-01-28T19:24:55.516Z,3.85
2018-01-28T19:27:23.721Z,5.20
2018-01-28T19:29:51.972Z,3.17
2018-01-28T19:32:20.171Z,6.12
2018-01-28T19:34:48.398Z,3.17
2018-01-28T19:37:16.552Z,8.20
2018-01-28T19:39:44.715Z,4.28
2018-01-28T19:42:13.702Z,3.33
2018-01-28T19:44:43.289Z,3.28
2018-01-28T19:47:11.517Z,3.03
2018-01-28T19:49:39.753Z,3.80
2018-01-28T19:52:08.743Z,2.55
2018-01-28T19:54:37.694Z,3.45
2018-01-28T19:57:06.775Z,3.67
2018-01-28T19:59:35.113Z,3.15
2018-01-28T20:02:04.059Z,4.63
2018-01-28T20:04:32.309Z,2.30
2018-01-28T20:07:00.579Z,3.07
2018-01-28T20:09:28.953Z,2.85
2018-01-28T20:11:57.119Z,4.93
2018-01-28T20:14:26.071Z,3.60
2018-01-28T20:16:54.322Z,2.78
2018-01-28T20:19:22.498Z,3.20
2018-01-28T20:21:50.724Z,2.63
2018-01-28T20:24:18.957Z,2.62
2018-01-28T20:26:47.167Z,2.83
2018-01-28T20:29:15.385Z,4.15
2018-01-28T20:31:43.583Z,3.40
2018-01-28T20:34:12.675Z,4.40
2018-01-28T20:36:40.903Z,3.03
2018-01-28T20:39:09.863Z,3.72
2018-01-28T20:41:38.041Z,4.00
2018-01-28T20:44:06.278Z,2.95
2018-01-28T20:46:34.471Z,3.62
2018-01-28T20:49:03.652Z,3.70
2018-01-28T20:51:31.842Z,3.30
2018-01-28T20:54:00.913Z,2.85
2018-01-28T20:56:29.124Z,3.50
2018-01-28T20:58:57.413Z,3.72
2018-01-28T21:01:25.622Z,2.93
2018-01-28T21:03:53.888Z,3.55
2018-01-28T21:06:22.083Z,3.43
2018-01-28T21:08:50.253Z,2.97
2018-01-28T21:11:19.269Z,3.72
2018-01-28T21:13:47.503Z,3.30
2018-01-28T21:16:15.687Z,3.00
2018-01-28T21:18:44.982Z,4.05
2018-01-28T21:21:13.160Z,3.97
2018-01-28T21:23:41.385Z,3.97
2018-01-28T21:26:09.575Z,4.22
2018-01-28T21:28:38.500Z,5.45
2018-01-28T21:31:06.780Z,4.47
2018-01-28T21:33:35.964Z,3.15
2018-01-28T21:36:04.288Z,5.22
2018-01-28T21:38:32.653Z,3.67
2018-01-28T21:41:01.649Z,3.47
2018-01-28T21:43:30.195Z,4.32
2018-01-28T21:45:58.685Z,4.22
2018-01-28T21:48:26.879Z,5.10
2018-01-28T21:50:55.870Z,5.53
2018-01-28T21:53:24.907Z,3.10
2018-01-28T21:55:53.087Z,4.53
2018-01-28T21:58:21.305Z,2.95
2018-01-28T22:00:49.622Z,3.62
2018-01-28T22:03:18.807Z,3.22
2018-01-28T22:05:47.109Z,4.03
2018-01-28T22:08:15.488Z,3.25
2018-01-28T22:10:47.456Z,2.12
2018-01-28T22:13:15.788Z,2.95
2018-01-28T22:15:43.916Z,4.43
2018-01-28T22:18:12.075Z,4.47
2018-01-28T22:20:40.301Z,3.73
2018-01-28T22:23:08.502Z,3.87
2018-01-28T22:25:36.689Z,2.83
2018-01-28T22:28:05.585Z,2.58
2018-01-28T22:30:34.280Z,2.92
2018-01-28T22:33:02.496Z,3.35
2018-01-28T22:35:31.395Z,3.40
2018-01-28T22:37:59.518Z,2.35
2018-01-28T22:40:27.664Z,4.03
2018-01-28T22:42:55.855Z,2.97
2018-01-28T22:45:24.141Z,3.22
2018-01-28T22:47:52.457Z,3.15
2018-01-28T22:50:21.425Z,4.90
2018-01-28T22:52:49.729Z,3.50
2018-01-28T22:55:17.897Z,4.53
2018-01-28T22:57:46.030Z,5.32
2018-01-28T23:00:14.212Z,4.30
2018-01-28T23:02:42.364Z,4.97
2018-01-28T23:05:10.534Z,9.53
2018-01-28T23:07:38.666Z,8.60
2018-01-28T23:10:06.833Z,8.70
2018-01-28T23:12:34.938Z,7.43
2018-01-28T23:15:03.065Z,5.82
2018-01-28T23:17:31.287Z,8.75
2018-01-28T23:20:00.290Z,6.18
2018-01-28T23:22:28.574Z,7.25
2018-01-28T23:24:56.704Z,2.80
2018-01-28T23:27:24.839Z,3.33
2018-01-28T23:29:52.955Z,3.03
2018-01-28T23:32:21.103Z,3.12
2018-01-28T23:34:49.225Z,3.87
2018-01-28T23:37:17.400Z,4.57
2018-01-28T23:39:45.507Z,2.92
2018-01-28T23:42:13.642Z,2.90
2018-01-28T23:44:41.799Z,2.60
2018-01-28T23:47:10.688Z,2.28
2018-01-28T23:49:40.319Z,3.25
2018-01-28T23:52:09.184Z,2.45
2018-01-28T23:54:38.095Z,10.20
2018-01-28T23:57:06.219Z,6.47
2018-01-28T23:59:34.345Z,4.68
